»·PEaware :: DAL2841 KSLC-KPDX

DAL2841 :: KSLC-KPDX

FLIGHT INFORMATION

Flight Status: Arrived
Operator:
Delta Air Lines
More flights by this operator :: More flights under this callsign
Pilot: John C. (18682)
Aircraft: AIRBUS A320
(A320)
More flights by this aircraft type
Origin: KSLC Salt Lake City Intl
United States
Destination: KPDX Portland Intl
United States
More flights between these airports :: More routes between these airports
Route: TWF4 TWF J15 BOI J163 BKE JOTBA HHOOD4
File this flight plan on PilotEdge
Remarks:
Altitude:
(Current/Filed)
36,000ft
Speed:
(Current/Filed)
438kts
Departed: 27-Apr-18 05:23 PM
Arrived: 27-Apr-18 06:52 PM
Distance/Time
Traveled:
546nm/1:29
Distance/Time
To Go:
Arrived

Flight Plot

Page will automatically refresh every two minutes.

Flight plan parsing failed; only flown route is shown


Map Options




Map Legend


Flown Route
Filed Route
Departure Airport
Arrival Airport
Navaid (VOR, NDB)
Fix

Horizontal Profiles

Position Reports

Time Latitude Longitude Heading Altitude Ground
Speed
27-Apr-18 16:58 40.788270 -111.982052 103 4236ft 0kts
27-Apr-18 16:59 40.788270 -111.982052 103 4236ft 0kts
27-Apr-18 17:00 40.788270 -111.982052 103 4236ft 0kts
27-Apr-18 17:01 40.788270 -111.982052 103 4236ft 0kts
27-Apr-18 17:02 40.788270 -111.982052 103 4236ft 0kts
27-Apr-18 17:03 40.788270 -111.982052 103 4236ft 0kts
27-Apr-18 17:04 40.788270 -111.982052 103 4236ft 0kts
27-Apr-18 17:05 40.788270 -111.982052 103 4236ft 0kts
27-Apr-18 17:06 40.788270 -111.982052 103 4236ft 0kts
27-Apr-18 17:07 40.788270 -111.982052 103 4236ft 0kts
27-Apr-18 17:08 40.788270 -111.982052 102 4236ft 0kts
27-Apr-18 17:09 40.788270 -111.982052 103 4236ft 0kts
27-Apr-18 17:10 40.788270 -111.982052 103 4236ft 0kts
27-Apr-18 17:11 40.788270 -111.982052 103 4236ft 0kts
27-Apr-18 17:12 40.788356 -111.982543 102 4236ft 0kts
27-Apr-18 17:13 40.788116 -111.982938 5 4236ft 0kts
27-Apr-18 17:14 40.788117 -111.982938 5 4236ft 0kts
27-Apr-18 17:15 40.788480 -111.982883 6 4236ft 10kts
27-Apr-18 17:16 40.790135 -111.979463 66 4236ft 18kts
27-Apr-18 17:17 40.791212 -111.977226 355 4236ft 12kts
27-Apr-18 17:18 40.796845 -111.977877 354 4236ft 23kts
27-Apr-18 17:19 40.803042 -111.978331 9 4236ft 20kts
27-Apr-18 17:20 40.807145 -111.978459 32 4236ft 0kts
27-Apr-18 17:21 40.805790 -111.976745 175 4236ft 29kts
27-Apr-18 17:22 40.768279 -111.977820 212 5778ft 188kts
27-Apr-18 17:23 40.748705 -112.052987 269 7844ft 265kts
27-Apr-18 17:24 40.778547 -112.152464 292 10496ft 309kts
27-Apr-18 17:25 40.816218 -112.264159 292 12949ft 346kts
27-Apr-18 17:26 40.877426 -112.350382 341 15618ft 367kts
27-Apr-18 17:27 40.976452 -112.390415 340 18204ft 380kts
27-Apr-18 17:28 41.077920 -112.434383 332 20504ft 390kts
27-Apr-18 17:29 41.168429 -112.509277 322 22566ft 397kts
27-Apr-18 17:30 41.257039 -112.598631 320 24473ft 405kts
27-Apr-18 17:31 41.336020 -112.704623 309 26199ft 410kts
27-Apr-18 17:32 41.413297 -112.818017 308 27780ft 418kts
27-Apr-18 17:33 41.490604 -112.936389 308 29128ft 428kts
27-Apr-18 17:34 41.569425 -113.057248 308 30334ft 438kts
27-Apr-18 17:35 41.649595 -113.180638 308 31504ft 444kts
27-Apr-18 17:36 41.729790 -113.304587 308 33043ft 437kts
27-Apr-18 17:37 41.808711 -113.427064 308 34379ft 433kts
27-Apr-18 17:38 41.886871 -113.548848 308 35538ft 430kts
27-Apr-18 17:39 41.964093 -113.669663 307 35940ft 427kts
27-Apr-18 17:40 42.041369 -113.791054 307 35941ft 429kts
27-Apr-18 17:41 42.117882 -113.911748 307 35941ft 428kts
27-Apr-18 17:42 42.194981 -114.033868 307 35932ft 428kts
27-Apr-18 17:43 42.271967 -114.156302 307 35917ft 428kts
27-Apr-18 17:44 42.348758 -114.278931 307 35910ft 428kts
27-Apr-18 17:45 42.425419 -114.401862 307 35915ft 428kts
27-Apr-18 17:46 42.502251 -114.524485 309 35915ft 429kts
27-Apr-18 17:47 42.581014 -114.645863 308 35915ft 429kts
27-Apr-18 17:48 42.658855 -114.766703 308 35929ft 429kts
27-Apr-18 17:49 42.737277 -114.888990 308 35938ft 429kts
27-Apr-18 17:50 42.815331 -115.011217 307 35919ft 429kts
27-Apr-18 17:51 42.893331 -115.133876 306 35817ft 432kts
27-Apr-18 17:52 42.972447 -115.258812 307 35780ft 439kts
27-Apr-18 17:53 43.052414 -115.385606 307 35850ft 444kts
27-Apr-18 17:54 43.132523 -115.513241 307 35880ft 446kts
27-Apr-18 17:55 43.212986 -115.642005 307 35873ft 445kts
27-Apr-18 17:56 43.293120 -115.770807 306 35845ft 444kts
27-Apr-18 17:57 43.372760 -115.899374 306 35822ft 443kts
27-Apr-18 17:58 43.452394 -116.028499 306 35789ft 443kts
27-Apr-18 17:59 43.531849 -116.157906 306 35796ft 443kts
27-Apr-18 18:00 43.621080 -116.275283 315 35794ft 447kts
27-Apr-18 18:01 43.714129 -116.389173 315 35783ft 447kts
27-Apr-18 18:02 43.806903 -116.503177 315 35783ft 447kts
27-Apr-18 18:03 43.899118 -116.616976 315 35783ft 447kts
27-Apr-18 18:04 43.991300 -116.731225 314 35795ft 447kts
27-Apr-18 18:05 44.083724 -116.846272 314 35803ft 447kts
27-Apr-18 18:06 44.175187 -116.960622 314 35775ft 447kts
27-Apr-18 18:07 44.268103 -117.077291 313 35750ft 454kts
27-Apr-18 18:08 44.362916 -117.196865 314 35805ft 467kts
27-Apr-18 18:09 44.458824 -117.318402 314 35845ft 466kts
27-Apr-18 18:10 44.554712 -117.440480 314 35863ft 466kts
27-Apr-18 18:11 44.650190 -117.562577 314 35859ft 465kts
27-Apr-18 18:12 44.744963 -117.684401 313 35863ft 465kts
27-Apr-18 18:13 44.832800 -117.815197 293 35875ft 455kts
27-Apr-18 18:14 44.863915 -117.983256 275 35890ft 442kts
27-Apr-18 18:15 44.885928 -118.153181 275 35859ft 441kts
27-Apr-18 18:16 44.907782 -118.322837 275 35826ft 440kts
27-Apr-18 18:17 44.929354 -118.492243 275 35842ft 440kts
27-Apr-18 18:18 44.947151 -118.633650 275 35889ft 440kts
27-Apr-18 18:19 44.967818 -118.799780 274 36029ft 440kts
27-Apr-18 18:20 44.988692 -118.969709 272 35959ft 444kts
27-Apr-18 18:21 45.009712 -119.143079 272 35935ft 454kts
27-Apr-18 18:22 45.030892 -119.320032 272 36006ft 461kts
27-Apr-18 18:23 45.051996 -119.498861 273 35995ft 463kts
27-Apr-18 18:24 45.072618 -119.676024 272 35574ft 456kts
27-Apr-18 18:25 45.092726 -119.851397 273 34587ft 454kts
27-Apr-18 18:26 45.112277 -120.024099 273 32671ft 444kts
27-Apr-18 18:27 45.131289 -120.194527 274 30705ft 433kts
27-Apr-18 18:28 45.149544 -120.360463 274 28641ft 424kts
27-Apr-18 18:29 45.169580 -120.523456 288 26515ft 422kts
27-Apr-18 18:30 45.224527 -120.669157 295 24369ft 418kts
27-Apr-18 18:31 45.279003 -120.810923 295 22447ft 403kts
27-Apr-18 18:32 45.331458 -120.948076 296 20522ft 390kts
27-Apr-18 18:33 45.381904 -121.080588 296 18262ft 367kts
27-Apr-18 18:34 45.428608 -121.206137 288 16376ft 353kts
27-Apr-18 18:35 45.455129 -121.337554 283 14561ft 342kts
27-Apr-18 18:36 45.480417 -121.465747 284 12803ft 331kts
27-Apr-18 18:37 45.504897 -121.589687 284 11121ft 320kts
27-Apr-18 18:38 45.527944 -121.707729 280 9838ft 297kts
27-Apr-18 18:39 45.533334 -121.821640 270 8450ft 285kts
27-Apr-18 18:40 45.537306 -121.933060 271 7170ft 272kts
27-Apr-18 18:41 45.541650 -122.033278 260 6730ft 235kts
27-Apr-18 18:42 45.508330 -122.109593 233 6244ft 225kts
27-Apr-18 18:43 45.474107 -122.183075 257 5655ft 227kts
27-Apr-18 18:44 45.480021 -122.268471 274 4731ft 208kts
27-Apr-18 18:45 45.496324 -122.342212 297 3572ft 193kts
27-Apr-18 18:46 45.520563 -122.404709 296 2592ft 173kts
27-Apr-18 18:47 45.541435 -122.458455 296 1769ft 136kts
27-Apr-18 18:48 45.558711 -122.502751 296 1081ft 130kts
27-Apr-18 18:49 45.575347 -122.545772 298 435ft 130kts
27-Apr-18 18:50 45.590135 -122.583650 299 38ft 63kts
27-Apr-18 18:51 45.592099 -122.592573 269 38ft 19kts
27-Apr-18 18:52 45.591892 -122.595994 242 38ft 3kts
27-Apr-18 18:53 45.591880 -122.596025 242 38ft 1kts
27-Apr-18 18:54 45.591879 -122.596028 242 38ft 0kts
27-Apr-18 18:55 45.591879 -122.596028 242 38ft 0kts

Navigation Log

Ident Type
Flight plan parsing failed, navigation log unavailable